createdAt,value
2017-09-27T00:00:22.140Z,92.30
2017-09-27T00:02:50.345Z,92.10
2017-09-27T00:05:18.788Z,92.10
2017-09-27T00:07:46.995Z,92.20
2017-09-27T00:10:14.428Z,92.20
2017-09-27T00:12:41.864Z,92.10
2017-09-27T00:15:09.299Z,92.10
2017-09-27T00:17:36.737Z,92.00
2017-09-27T00:20:04.170Z,92.00
2017-09-27T00:22:31.596Z,92.20
2017-09-27T00:24:59.816Z,91.90
2017-09-27T00:27:27.245Z,91.90
2017-09-27T00:29:55.442Z,91.80
2017-09-27T00:32:22.877Z,91.80
2017-09-27T00:34:50.308Z,91.80
2017-09-27T00:37:17.744Z,91.80
2017-09-27T00:39:45.177Z,91.80
2017-09-27T00:42:12.604Z,92.00
2017-09-27T00:44:40.035Z,91.90
2017-09-27T00:47:07.459Z,91.90
2017-09-27T00:49:34.896Z,92.10
2017-09-27T00:52:02.357Z,92.00
2017-09-27T00:54:30.530Z,92.20
2017-09-27T00:56:57.963Z,92.20
2017-09-27T00:59:25.391Z,92.20
2017-09-27T01:01:52.823Z,92.30
2017-09-27T01:04:21.187Z,92.10
2017-09-27T01:06:48.619Z,92.20
2017-09-27T01:09:16.052Z,92.20
2017-09-27T01:11:44.253Z,92.50
2017-09-27T01:14:11.687Z,92.50
2017-09-27T01:16:39.912Z,92.60
2017-09-27T01:19:07.335Z,92.60
2017-09-27T01:21:34.772Z,92.60
2017-09-27T01:24:02.968Z,92.70
2017-09-27T01:26:30.399Z,92.70
2017-09-27T01:28:58.607Z,92.60
2017-09-27T01:31:26.042Z,92.60
2017-09-27T01:33:54.251Z,92.60
2017-09-27T01:36:21.736Z,92.60
2017-09-27T01:38:49.174Z,92.50
2017-09-27T01:41:16.605Z,92.60
2017-09-27T01:43:53.827Z,92.50
2017-09-27T01:46:21.264Z,92.50
2017-09-27T01:48:48.699Z,92.40
2017-09-27T01:51:16.136Z,92.40
2017-09-27T01:53:44.354Z,92.40
2017-09-27T01:56:11.793Z,92.40
2017-09-27T01:58:39.224Z,92.30
2017-09-27T02:01:07.442Z,92.80
2017-09-27T02:03:34.872Z,92.80
2017-09-27T02:06:02.324Z,92.70
2017-09-27T02:08:30.532Z,92.80
2017-09-27T02:10:57.977Z,92.80
2017-09-27T02:13:25.417Z,92.70
2017-09-27T02:15:53.633Z,92.70
2017-09-27T02:18:21.079Z,92.70
2017-09-27T02:20:48.512Z,92.90
2017-09-27T02:23:15.948Z,92.90
2017-09-27T02:25:44.165Z,92.70
2017-09-27T02:28:11.600Z,92.70
2017-09-27T02:30:39.038Z,92.50
2017-09-27T02:33:06.473Z,92.70
2017-09-27T02:35:33.926Z,92.70
2017-09-27T02:38:01.363Z,92.80
2017-09-27T02:40:28.813Z,92.70
2017-09-27T02:42:56.251Z,92.70
2017-09-27T02:45:23.681Z,92.80
2017-09-27T02:47:51.122Z,92.80
2017-09-27T02:50:18.561Z,92.70
2017-09-27T02:52:46.005Z,92.70
2017-09-27T02:55:13.457Z,92.60
2017-09-27T02:57:40.902Z,92.50
2017-09-27T03:00:08.346Z,92.40
2017-09-27T03:02:35.780Z,92.30
2017-09-27T03:05:03.985Z,92.10
2017-09-27T03:07:31.436Z,92.10
2017-09-27T03:09:58.864Z,92.10
2017-09-27T03:12:38.484Z,92.10
2017-09-27T03:15:05.933Z,92.10
2017-09-27T03:17:33.364Z,92.10
2017-09-27T03:20:00.806Z,92.20
2017-09-27T03:22:28.254Z,92.20
2017-09-27T03:24:56.444Z,92.10
2017-09-27T03:27:23.884Z,92.10
2017-09-27T03:29:51.322Z,92.10
2017-09-27T03:32:19.530Z,92.20
2017-09-27T03:34:46.967Z,92.10
2017-09-27T03:37:14.426Z,92.10
2017-09-27T03:39:41.866Z,92.10
2017-09-27T03:42:10.064Z,92.00
2017-09-27T03:44:37.504Z,92.00
2017-09-27T03:47:05.710Z,92.00
2017-09-27T03:49:33.168Z,92.00
2017-09-27T03:52:00.605Z,92.10
2017-09-27T03:54:28.049Z,91.90
2017-09-27T03:56:56.249Z,91.90
2017-09-27T03:59:23.702Z,91.90
2017-09-27T04:01:51.133Z,91.90
2017-09-27T04:04:19.347Z,91.90
2017-09-27T04:06:46.789Z,91.90
2017-09-27T04:09:14.238Z,91.80
2017-09-27T04:11:42.436Z,92.10
2017-09-27T04:14:10.665Z,91.80
2017-09-27T04:16:39.049Z,92.00
2017-09-27T04:19:07.253Z,91.90
2017-09-27T04:21:34.697Z,91.90
2017-09-27T04:24:02.148Z,91.90
2017-09-27T04:26:30.350Z,92.20
2017-09-27T04:28:57.801Z,92.20
2017-09-27T04:31:25.230Z,92.20
2017-09-27T04:33:53.432Z,92.30
2017-09-27T04:36:20.881Z,92.30
2017-09-27T04:38:48.312Z,92.20
2017-09-27T04:41:18.539Z,92.30
2017-09-27T04:43:48.781Z,92.20
2017-09-27T04:46:16.237Z,92.20
2017-09-27T04:48:43.661Z,92.20
2017-09-27T04:51:11.100Z,92.50
2017-09-27T04:53:38.549Z,92.80
2017-09-27T04:56:05.992Z,92.60
2017-09-27T04:58:33.430Z,92.60
2017-09-27T05:01:00.868Z,92.60
2017-09-27T05:03:28.313Z,92.50
2017-09-27T05:05:56.524Z,92.80
2017-09-27T05:08:23.958Z,92.70
2017-09-27T05:10:52.160Z,92.70
2017-09-27T05:13:19.597Z,92.70
2017-09-27T05:15:47.040Z,92.70
2017-09-27T05:18:15.243Z,92.80
2017-09-27T05:20:42.686Z,92.80
2017-09-27T05:23:10.840Z,92.80
2017-09-27T05:25:39.061Z,92.60
2017-09-27T05:28:06.483Z,92.50
2017-09-27T05:30:33.932Z,92.70
2017-09-27T05:33:01.362Z,92.80
2017-09-27T05:35:28.808Z,92.80
2017-09-27T05:37:56.297Z,93.00
2017-09-27T05:40:24.514Z,92.90
2017-09-27T05:42:52.717Z,92.60
2017-09-27T05:45:20.172Z,92.80
2017-09-27T05:47:47.608Z,93.00
2017-09-27T05:50:15.045Z,93.00
2017-09-27T05:52:42.482Z,92.90
2017-09-27T05:55:10.687Z,92.90
2017-09-27T05:57:38.208Z,92.90
2017-09-27T06:00:06.413Z,93.00
2017-09-27T06:02:33.852Z,93.00
2017-09-27T06:05:02.119Z,92.80
2017-09-27T06:07:30.312Z,92.70
2017-09-27T06:09:57.747Z,92.70
2017-09-27T06:12:25.983Z,92.70
2017-09-27T06:14:53.434Z,92.70
2017-09-27T06:17:20.942Z,92.60
2017-09-27T06:19:49.137Z,92.70
2017-09-27T06:22:16.580Z,92.80
2017-09-27T06:24:44.785Z,92.60
2017-09-27T06:27:13.232Z,92.60
2017-09-27T06:29:41.435Z,92.80
2017-09-27T06:32:08.875Z,92.80
2017-09-27T06:34:36.305Z,92.70
2017-09-27T06:37:03.760Z,92.70
2017-09-27T06:39:31.208Z,92.70
2017-09-27T06:41:58.648Z,92.70
2017-09-27T06:44:26.142Z,92.70
2017-09-27T06:46:53.589Z,92.70
2017-09-27T06:49:21.025Z,92.50
2017-09-27T06:51:48.480Z,92.60
2017-09-27T06:54:15.918Z,92.70
2017-09-27T06:56:43.352Z,92.50
2017-09-27T06:59:10.800Z,92.60
2017-09-27T07:01:39.181Z,92.60
2017-09-27T07:04:06.625Z,92.50
2017-09-27T07:06:34.820Z,92.90
2017-09-27T07:09:02.266Z,92.80
2017-09-27T07:11:29.707Z,92.90
2017-09-27T07:14:03.592Z,92.90
2017-09-27T07:16:31.034Z,92.90
2017-09-27T07:18:58.490Z,93.00
2017-09-27T07:21:25.933Z,92.90
2017-09-27T07:23:53.385Z,92.80
2017-09-27T07:26:24.581Z,92.80
2017-09-27T07:28:52.020Z,92.50
2017-09-27T07:31:19.454Z,92.10
2017-09-27T07:33:46.900Z,92.30
2017-09-27T07:36:14.353Z,92.20
2017-09-27T07:38:41.785Z,92.40
2017-09-27T07:41:09.230Z,92.10
2017-09-27T07:43:37.440Z,91.50
2017-09-27T07:46:04.864Z,91.50
2017-09-27T07:48:33.089Z,91.10
2017-09-27T07:51:00.582Z,91.00
2017-09-27T07:53:28.022Z,90.30
2017-09-27T07:55:55.456Z,89.50
2017-09-27T07:58:22.896Z,87.70
2017-09-27T08:00:50.346Z,85.80
2017-09-27T08:03:23.880Z,83.60
2017-09-27T08:05:51.330Z,82.90
2017-09-27T08:08:18.762Z,80.60
2017-09-27T08:10:46.221Z,79.70
2017-09-27T08:13:13.652Z,77.50
2017-09-27T08:15:41.863Z,75.90
2017-09-27T08:18:09.304Z,75.90
2017-09-27T08:20:36.752Z,76.00
2017-09-27T08:23:04.185Z,76.30
2017-09-27T08:25:31.632Z,73.60
2017-09-27T08:27:59.064Z,74.40
2017-09-27T08:30:26.574Z,73.90
2017-09-27T08:32:54.782Z,72.10
2017-09-27T08:35:22.233Z,72.00
2017-09-27T08:37:49.664Z,72.20
2017-09-27T08:40:17.870Z,71.40
2017-09-27T08:42:45.307Z,71.30
2017-09-27T08:45:12.750Z,71.20
2017-09-27T08:47:40.955Z,71.30
2017-09-27T08:50:08.393Z,71.30
2017-09-27T08:52:35.832Z,69.80
2017-09-27T08:55:04.046Z,68.30
2017-09-27T08:57:31.503Z,68.30
2017-09-27T08:59:58.955Z,69.10
2017-09-27T09:02:26.401Z,68.10
2017-09-27T09:04:53.829Z,67.20
2017-09-27T09:07:22.053Z,67.90
2017-09-27T09:09:49.501Z,67.80
2017-09-27T09:12:16.941Z,68.00
2017-09-27T09:14:44.377Z,67.90
2017-09-27T09:17:12.595Z,66.60
2017-09-27T09:19:40.030Z,66.60
2017-09-27T09:22:07.469Z,67.60
2017-09-27T09:24:35.671Z,66.90
2017-09-27T09:27:03.125Z,66.80
2017-09-27T09:29:30.556Z,67.70
2017-09-27T09:31:58.773Z,66.30
2017-09-27T09:34:26.213Z,66.30
2017-09-27T09:36:53.657Z,66.20
2017-09-27T09:39:21.893Z,66.40
2017-09-27T09:41:49.314Z,66.30
2017-09-27T09:44:18.804Z,66.30
2017-09-27T09:46:46.253Z,66.50
2017-09-27T09:49:13.689Z,65.80
2017-09-27T09:51:41.896Z,66.40
2017-09-27T09:54:10.169Z,66.00
2017-09-27T09:56:37.603Z,66.50
2017-09-27T09:59:05.809Z,69.50
2017-09-27T10:01:33.252Z,69.40
2017-09-27T10:04:00.692Z,66.00
2017-09-27T10:06:28.902Z,65.20
2017-09-27T10:08:56.346Z,65.20
2017-09-27T10:11:23.776Z,63.80
2017-09-27T10:13:51.991Z,64.10
2017-09-27T10:16:19.469Z,64.10
2017-09-27T10:18:46.926Z,65.20
2017-09-27T10:21:14.357Z,63.70
2017-09-27T10:23:41.804Z,62.30
2017-09-27T10:26:09.246Z,62.70
2017-09-27T10:28:37.456Z,65.20
2017-09-27T10:31:04.897Z,65.20
2017-09-27T10:33:32.349Z,61.70
2017-09-27T10:36:01.832Z,62.10
2017-09-27T10:38:30.128Z,67.70
2017-09-27T10:40:57.557Z,67.60
2017-09-27T10:43:26.793Z,63.50
2017-09-27T10:45:54.230Z,62.60
2017-09-27T10:48:22.438Z,68.50
2017-09-27T10:50:49.898Z,68.40
2017-09-27T10:53:34.032Z,62.60
2017-09-27T10:56:01.465Z,62.10
2017-09-27T10:58:29.686Z,63.20
2017-09-27T11:00:57.127Z,63.20
2017-09-27T11:03:24.565Z,63.30
2017-09-27T11:05:52.008Z,61.70
2017-09-27T11:08:19.513Z,60.40
2017-09-27T11:10:46.931Z,66.60
2017-09-27T11:13:15.141Z,58.30
2017-09-27T11:15:43.350Z,58.00
2017-09-27T11:18:10.781Z,58.00
2017-09-27T11:20:38.236Z,59.60
2017-09-27T11:23:05.669Z,63.20
2017-09-27T11:25:33.154Z,59.80
2017-09-27T11:28:05.365Z,61.30
2017-09-27T11:30:33.571Z,59.40
2017-09-27T11:33:01.017Z,59.40
2017-09-27T11:35:28.448Z,59.80
2017-09-27T11:37:56.657Z,60.00
2017-09-27T11:40:24.132Z,60.00
2017-09-27T11:42:51.574Z,60.90
2017-09-27T11:45:19.016Z,62.10
2017-09-27T11:47:46.516Z,60.60
2017-09-27T11:50:21.157Z,60.20
2017-09-27T11:52:48.596Z,61.10
2017-09-27T11:55:16.049Z,60.20
2017-09-27T11:57:43.485Z,60.80
2017-09-27T12:00:10.922Z,61.10
2017-09-27T12:02:39.133Z,62.00
2017-09-27T12:05:06.574Z,61.90
2017-09-27T12:07:34.019Z,62.50
2017-09-27T12:10:01.462Z,64.90
2017-09-27T12:12:29.674Z,64.50
2017-09-27T12:15:09.193Z,64.50
2017-09-27T12:17:36.676Z,64.50
2017-09-27T12:20:04.105Z,66.20
2017-09-27T12:22:31.596Z,66.20
2017-09-27T12:24:59.028Z,67.10
2017-09-27T12:27:26.473Z,73.00
2017-09-27T12:29:54.673Z,69.60
2017-09-27T12:32:22.120Z,69.60
2017-09-27T12:34:49.562Z,69.20
2017-09-27T12:37:17.012Z,67.20
2017-09-27T12:39:45.222Z,69.30
2017-09-27T12:42:12.740Z,69.30
2017-09-27T12:44:40.185Z,69.60
2017-09-27T12:47:07.640Z,67.60
2017-09-27T12:49:35.085Z,67.70
2017-09-27T12:52:02.593Z,67.50
2017-09-27T12:54:30.021Z,68.60
2017-09-27T12:56:58.241Z,68.00
2017-09-27T12:59:26.435Z,67.70
2017-09-27T13:01:53.920Z,67.70
2017-09-27T13:04:21.366Z,68.70
2017-09-27T13:06:48.810Z,68.50
2017-09-27T13:09:16.293Z,68.20
2017-09-27T13:11:43.737Z,68.00
2017-09-27T13:14:11.185Z,67.70
2017-09-27T13:16:38.633Z,67.70
2017-09-27T13:19:06.203Z,67.60
2017-09-27T13:21:33.645Z,68.20
2017-09-27T13:24:01.089Z,71.40
2017-09-27T13:26:28.533Z,70.90
2017-09-27T13:28:55.992Z,73.30
2017-09-27T13:31:23.409Z,70.60
2017-09-27T13:33:50.865Z,74.60
2017-09-27T13:36:18.313Z,75.00
2017-09-27T13:38:45.922Z,68.40
2017-09-27T13:41:13.341Z,68.90
2017-09-27T13:43:40.781Z,66.10
2017-09-27T13:46:08.214Z,67.30
2017-09-27T13:48:35.661Z,66.20
2017-09-27T13:51:03.111Z,67.80
2017-09-27T13:53:30.549Z,67.70
2017-09-27T13:55:58.049Z,68.80
2017-09-27T13:58:25.511Z,65.00
2017-09-27T14:00:53.005Z,67.50
2017-09-27T14:03:20.441Z,66.80
2017-09-27T14:05:47.914Z,70.20
2017-09-27T14:08:16.120Z,69.80
2017-09-27T14:10:43.569Z,69.80
2017-09-27T14:13:11.013Z,70.00
2017-09-27T14:15:39.233Z,71.80
2017-09-27T14:18:06.686Z,71.80
2017-09-27T14:20:34.145Z,69.00
2017-09-27T14:23:03.503Z,64.30
2017-09-27T14:25:31.719Z,64.60
2017-09-27T14:27:59.173Z,64.60
2017-09-27T14:30:26.732Z,66.30
2017-09-27T14:32:54.190Z,66.40
2017-09-27T14:35:21.651Z,68.00
2017-09-27T14:37:49.087Z,66.80
2017-09-27T14:40:16.525Z,64.10
2017-09-27T14:42:44.725Z,63.30
2017-09-27T14:45:12.940Z,66.30
2017-09-27T14:47:40.374Z,66.20
2017-09-27T14:50:07.836Z,63.30
2017-09-27T14:52:35.277Z,62.70
2017-09-27T14:55:02.742Z,63.10
2017-09-27T14:57:30.179Z,63.20
2017-09-27T14:59:57.615Z,64.80
2017-09-27T15:02:25.840Z,65.60
2017-09-27T15:04:54.268Z,65.50
2017-09-27T15:07:22.482Z,62.80
2017-09-27T15:09:49.913Z,62.80
2017-09-27T15:12:17.357Z,66.80
2017-09-27T15:14:45.564Z,68.60
2017-09-27T15:17:13.004Z,68.60
2017-09-27T15:19:40.442Z,66.90
2017-09-27T15:22:08.706Z,67.60
2017-09-27T15:24:36.139Z,67.60
2017-09-27T15:27:03.590Z,66.80
2017-09-27T15:29:36.213Z,68.10
2017-09-27T15:32:04.427Z,68.90
2017-09-27T15:34:31.861Z,68.90
2017-09-27T15:36:59.315Z,70.60
2017-09-27T15:39:26.750Z,71.10
2017-09-27T15:41:54.189Z,70.70
2017-09-27T15:44:21.642Z,70.20
2017-09-27T15:46:49.086Z,71.80
2017-09-27T15:49:16.526Z,71.80
2017-09-27T15:51:43.971Z,71.30
2017-09-27T15:54:11.397Z,71.00
2017-09-27T15:56:38.844Z,72.40
2017-09-27T15:59:06.318Z,76.00
2017-09-27T16:01:33.757Z,76.90
2017-09-27T16:04:01.198Z,78.30
2017-09-27T16:06:28.656Z,78.50
2017-09-27T16:08:56.090Z,78.40
2017-09-27T16:11:23.531Z,77.40
2017-09-27T16:13:50.968Z,76.50
2017-09-27T16:16:18.401Z,75.30
2017-09-27T16:18:45.840Z,75.60
2017-09-27T16:21:13.298Z,75.90
2017-09-27T16:23:40.777Z,79.10
2017-09-27T16:26:08.981Z,76.40
2017-09-27T16:28:36.436Z,76.30
2017-09-27T16:31:03.861Z,77.30
2017-09-27T16:33:31.302Z,78.50
2017-09-27T16:35:58.738Z,81.20
2017-09-27T16:38:26.181Z,81.90
2017-09-27T16:40:53.624Z,82.30
2017-09-27T16:43:21.209Z,82.00
2017-09-27T16:45:48.654Z,81.70
2017-09-27T16:48:16.112Z,82.10
2017-09-27T16:50:43.533Z,82.40
2017-09-27T16:53:11.744Z,82.60
2017-09-27T16:55:39.187Z,82.60
2017-09-27T16:58:06.626Z,82.70
2017-09-27T17:00:34.829Z,82.30
2017-09-27T17:03:02.268Z,82.30
2017-09-27T17:05:29.705Z,82.20
2017-09-27T17:07:57.905Z,82.80
2017-09-27T17:10:25.362Z,82.80
2017-09-27T17:12:52.789Z,83.20
2017-09-27T17:15:21.011Z,83.60
2017-09-27T17:17:48.441Z,83.50
2017-09-27T17:20:15.882Z,83.70
2017-09-27T17:22:44.082Z,84.80
2017-09-27T17:25:11.533Z,84.80
2017-09-27T17:27:38.995Z,85.80
2017-09-27T17:30:11.677Z,85.80
2017-09-27T17:32:45.326Z,86.50
2017-09-27T17:35:12.771Z,86.80
2017-09-27T17:37:40.208Z,86.80
2017-09-27T17:40:07.644Z,87.00
2017-09-27T17:42:35.082Z,87.60
2017-09-27T17:45:03.284Z,87.90
2017-09-27T17:47:30.722Z,87.90
2017-09-27T17:50:01.665Z,88.10
2017-09-27T17:52:29.097Z,88.70
2017-09-27T17:54:56.533Z,89.40
2017-09-27T17:57:23.969Z,89.10
2017-09-27T17:59:51.466Z,89.10
2017-09-27T18:02:18.910Z,89.40
2017-09-27T18:05:07.026Z,89.90
2017-09-27T18:07:39.991Z,90.00
2017-09-27T18:13:15.413Z,90.30
2017-09-27T18:15:55.484Z,90.30
2017-09-27T18:18:29.457Z,90.30
2017-09-27T18:20:56.906Z,90.20
2017-09-27T18:23:24.402Z,90.60
2017-09-27T18:25:52.619Z,90.50
2017-09-27T18:28:20.055Z,90.50
2017-09-27T18:30:48.269Z,90.90
2017-09-27T18:33:21.473Z,90.90
2017-09-27T18:35:48.922Z,91.10
2017-09-27T18:38:16.379Z,91.10
2017-09-27T18:40:53.800Z,90.80
2017-09-27T18:43:21.232Z,90.70
2017-09-27T18:45:48.676Z,90.90
2017-09-27T18:48:16.126Z,91.20
2017-09-27T18:50:43.557Z,91.20
2017-09-27T18:53:10.996Z,91.40
2017-09-27T18:55:46.105Z,91.50
2017-09-27T18:58:13.541Z,91.50
2017-09-27T19:00:40.985Z,91.80
2017-09-27T19:03:09.434Z,91.70
2017-09-27T19:05:44.938Z,92.10
2017-09-27T19:08:12.380Z,92.10
2017-09-27T19:10:39.829Z,92.00
2017-09-27T19:13:07.309Z,92.00
2017-09-27T19:15:34.793Z,92.10
2017-09-27T19:18:03.015Z,92.10
2017-09-27T19:20:30.449Z,92.10
2017-09-27T19:22:57.897Z,92.10
2017-09-27T19:25:29.749Z,92.20
2017-09-27T19:27:57.963Z,92.10
2017-09-27T19:30:25.388Z,92.10
2017-09-27T19:32:52.835Z,92.00
2017-09-27T19:35:21.033Z,91.90
2017-09-27T19:37:48.478Z,91.90
2017-09-27T19:40:15.926Z,91.80
2017-09-27T19:42:44.185Z,92.10
2017-09-27T19:45:11.653Z,92.10
2017-09-27T19:47:39.886Z,92.30
2017-09-27T19:50:07.334Z,92.10
2017-09-27T19:52:34.769Z,92.00
2017-09-27T19:55:02.222Z,92.00
2017-09-27T19:57:29.655Z,92.10
2017-09-27T20:00:08.757Z,92.20
2017-09-27T20:02:36.209Z,92.40
2017-09-27T20:05:07.504Z,92.50
2017-09-27T20:07:35.703Z,92.80
2017-09-27T20:10:03.150Z,92.80
2017-09-27T20:12:30.590Z,92.70
2017-09-27T20:15:09.290Z,92.70
2017-09-27T20:17:36.752Z,92.60
2017-09-27T20:20:04.204Z,92.70
2017-09-27T20:22:31.687Z,92.60
2017-09-27T20:25:14.598Z,92.80
2017-09-27T20:27:42.804Z,92.70
2017-09-27T20:30:10.256Z,92.70
2017-09-27T20:32:41.166Z,92.90
2017-09-27T20:35:09.409Z,92.90
2017-09-27T20:37:44.280Z,92.90
2017-09-27T20:40:11.698Z,92.80
2017-09-27T20:42:39.133Z,92.80
2017-09-27T20:45:06.581Z,92.70
2017-09-27T20:47:34.021Z,92.80
2017-09-27T20:50:01.476Z,92.50
2017-09-27T20:52:52.829Z,92.70
2017-09-27T20:55:20.273Z,92.70
2017-09-27T20:57:47.727Z,92.70
2017-09-27T21:00:25.361Z,92.90
2017-09-27T21:02:52.800Z,92.70
2017-09-27T21:05:20.247Z,92.60
2017-09-27T21:07:47.692Z,92.50
2017-09-27T21:10:15.163Z,92.80
2017-09-27T21:12:42.594Z,92.90
2017-09-27T21:15:10.033Z,92.90
2017-09-27T21:17:38.237Z,92.80
2017-09-27T21:20:05.681Z,92.80
2017-09-27T21:22:33.125Z,92.70
2017-09-27T21:25:00.574Z,92.90
2017-09-27T21:27:28.021Z,92.80
2017-09-27T21:29:56.224Z,92.80
2017-09-27T21:32:23.662Z,92.80
2017-09-27T21:34:52.854Z,93.00
2017-09-27T21:37:21.064Z,93.00
2017-09-27T21:39:48.497Z,92.90
2017-09-27T21:42:15.949Z,93.10
2017-09-27T21:44:44.152Z,93.10
2017-09-27T21:47:11.725Z,93.10
2017-09-27T21:49:39.165Z,93.00
2017-09-27T21:52:06.632Z,93.20
2017-09-27T21:54:34.076Z,93.40
2017-09-27T21:57:01.516Z,93.20
2017-09-27T21:59:29.715Z,93.40
2017-09-27T22:02:09.571Z,93.30
2017-09-27T22:04:37.005Z,93.20
2017-09-27T22:07:04.449Z,93.30
2017-09-27T22:09:32.645Z,93.20
2017-09-27T22:12:00.107Z,93.20
2017-09-27T22:14:27.536Z,93.20
2017-09-27T22:16:55.744Z,93.30
2017-09-27T22:19:23.195Z,93.20
2017-09-27T22:21:50.628Z,93.40
2017-09-27T22:24:18.835Z,93.30
2017-09-27T22:26:46.309Z,93.40
2017-09-27T22:29:31.053Z,93.50
2017-09-27T22:31:58.499Z,93.50
2017-09-27T22:34:25.929Z,93.40
2017-09-27T22:36:54.153Z,93.30
2017-09-27T22:39:21.588Z,93.30
2017-09-27T22:41:49.029Z,93.40
2017-09-27T22:44:16.477Z,93.50
2017-09-27T22:46:44.688Z,93.50
2017-09-27T22:49:12.128Z,93.50
2017-09-27T22:51:39.596Z,93.30
2017-09-27T22:54:07.024Z,93.30
2017-09-27T22:56:35.221Z,93.40
2017-09-27T22:59:02.665Z,93.30
2017-09-27T23:01:30.864Z,93.10
2017-09-27T23:03:58.327Z,93.10
2017-09-27T23:06:25.741Z,93.10
2017-09-27T23:08:53.956Z,93.40
2017-09-27T23:11:21.389Z,93.40
2017-09-27T23:13:48.824Z,93.50
2017-09-27T23:16:17.046Z,93.60
2017-09-27T23:18:44.485Z,93.60
2017-09-27T23:21:11.916Z,93.90
2017-09-27T23:23:40.123Z,93.90
2017-09-27T23:26:07.577Z,93.90
2017-09-27T23:28:35.015Z,93.70
2017-09-27T23:31:03.219Z,93.90
2017-09-27T23:33:30.667Z,93.90
2017-09-27T23:35:58.100Z,93.60
2017-09-27T23:38:26.306Z,93.30
2017-09-27T23:40:53.749Z,93.30
2017-09-27T23:43:21.182Z,93.20
2017-09-27T23:45:49.393Z,93.40
2017-09-27T23:48:16.853Z,93.40
2017-09-27T23:50:44.289Z,93.30
2017-09-27T23:53:11.713Z,93.50
2017-09-27T23:55:39.149Z,93.60
2017-09-27T23:58:06.594Z,93.70
